createdAt,value
2023-05-14T00:00:56.822Z,65.68
2023-05-14T00:01:56.858Z,65.97
2023-05-14T00:02:56.877Z,66.16
2023-05-14T00:03:56.951Z,65.78
2023-05-14T00:04:56.869Z,66.35
2023-05-14T00:05:56.840Z,66.45
2023-05-14T00:06:56.825Z,66.25
2023-05-14T00:07:56.837Z,66.06
2023-05-14T00:08:56.813Z,66.25
2023-05-14T00:09:56.809Z,66.06
2023-05-14T00:10:56.802Z,65.97
2023-05-14T00:11:56.817Z,65.88
2023-05-14T00:12:56.810Z,66.25
2023-05-14T00:13:56.816Z,65.88
2023-05-14T00:14:56.811Z,66.54
2023-05-14T00:15:56.863Z,66.54
2023-05-14T00:16:56.810Z,66.45
2023-05-14T00:17:56.839Z,66.54
2023-05-14T00:18:56.809Z,66.83
2023-05-14T00:19:56.800Z,66.64
2023-05-14T00:20:56.796Z,66.54
2023-05-14T00:21:56.784Z,66.54
2023-05-14T00:22:56.809Z,66.45
2023-05-14T00:23:56.800Z,66.64
2023-05-14T00:24:56.787Z,66.64
2023-05-14T00:25:56.792Z,66.83
2023-05-14T00:26:56.785Z,66.45
2023-05-14T00:27:56.786Z,66.35
2023-05-14T00:28:56.787Z,66.35
2023-05-14T00:29:56.782Z,66.35
2023-05-14T00:30:56.814Z,66.74
2023-05-14T00:31:56.772Z,66.16
2023-05-14T00:32:56.915Z,66.35
2023-05-14T00:33:56.778Z,66.45
2023-05-14T00:34:56.777Z,66.45
2023-05-14T00:35:56.771Z,66.51
2023-05-14T00:36:56.767Z,66.70
2023-05-14T00:37:56.768Z,66.51
2023-05-14T00:38:56.762Z,66.41
2023-05-14T00:39:56.759Z,66.89
2023-05-14T00:40:56.781Z,66.61
2023-05-14T00:41:56.773Z,66.80
2023-05-14T00:42:56.800Z,66.70
2023-05-14T00:43:56.756Z,66.51
2023-05-14T00:44:56.760Z,66.89
2023-05-14T00:45:56.751Z,66.99
2023-05-14T00:46:56.819Z,67.18
2023-05-14T00:47:56.800Z,66.41
2023-05-14T00:48:56.751Z,66.99
2023-05-14T00:49:56.741Z,66.89
2023-05-14T00:50:56.766Z,66.99
2023-05-14T00:51:56.740Z,66.99
2023-05-14T00:52:56.747Z,66.89
2023-05-14T00:53:56.759Z,66.99
2023-05-14T00:54:56.776Z,66.80
2023-05-14T00:55:56.734Z,67.18
2023-05-14T00:56:56.735Z,66.89
2023-05-14T00:57:56.732Z,66.89
2023-05-14T00:58:56.733Z,66.89
2023-05-14T00:59:56.731Z,67.27
2023-05-14T01:00:56.791Z,67.08
2023-05-14T01:01:56.718Z,67.18
2023-05-14T01:02:56.874Z,66.70
2023-05-14T01:03:56.794Z,66.89
2023-05-14T01:04:56.732Z,67.18
2023-05-14T01:05:56.738Z,67.18
2023-05-14T01:06:56.720Z,66.99
2023-05-14T01:07:56.711Z,66.99
2023-05-14T01:08:56.716Z,66.89
2023-05-14T01:09:56.712Z,66.70
2023-05-14T01:10:56.711Z,66.32
2023-05-14T01:11:56.707Z,66.03
2023-05-14T01:12:56.713Z,66.32
2023-05-14T01:13:56.700Z,66.41
2023-05-14T01:14:56.720Z,66.51
2023-05-14T01:15:56.708Z,66.80
2023-05-14T01:16:56.780Z,66.51
2023-05-14T01:17:56.727Z,66.51
2023-05-14T01:18:56.770Z,66.41
2023-05-14T01:19:56.693Z,66.51
2023-05-14T01:20:56.684Z,66.51
2023-05-14T01:21:56.704Z,65.74
2023-05-14T01:22:56.691Z,66.03
2023-05-14T01:23:56.686Z,66.41
2023-05-14T01:24:56.684Z,66.41
2023-05-14T01:25:56.683Z,66.41
2023-05-14T01:26:56.677Z,66.41
2023-05-14T01:27:56.674Z,65.94
2023-05-14T01:28:56.674Z,66.13
2023-05-14T01:29:56.676Z,66.41
2023-05-14T01:30:56.672Z,66.03
2023-05-14T01:31:56.686Z,66.03
2023-05-14T01:32:56.751Z,65.94
2023-05-14T01:33:56.658Z,65.94
2023-05-14T01:34:56.674Z,65.74
2023-05-14T01:35:56.679Z,65.55
2023-05-14T01:36:56.661Z,65.36
2023-05-14T01:37:56.653Z,65.08
2023-05-14T01:38:56.658Z,65.26
2023-05-14T01:39:56.649Z,64.88
2023-05-14T01:40:57.471Z,65.45
2023-05-14T01:41:56.652Z,65.36
2023-05-14T01:42:56.691Z,65.26
2023-05-14T01:43:56.640Z,65.45
2023-05-14T01:44:56.640Z,65.26
2023-05-14T01:45:56.789Z,65.17
2023-05-14T01:46:56.634Z,65.26
2023-05-14T01:47:56.675Z,65.26
2023-05-14T01:48:56.635Z,65.45
2023-05-14T01:49:56.639Z,64.88
2023-05-14T01:50:56.638Z,64.59
2023-05-14T01:51:56.630Z,64.69
2023-05-14T01:52:56.945Z,64.69
2023-05-14T01:53:56.632Z,64.69
2023-05-14T01:54:56.638Z,64.88
2023-05-14T01:55:56.614Z,65.17
2023-05-14T01:56:56.620Z,65.45
2023-05-14T01:57:56.625Z,65.45
2023-05-14T01:58:56.643Z,65.26
2023-05-14T01:59:56.608Z,65.26
2023-05-14T02:00:56.611Z,65.08
2023-05-14T02:01:56.694Z,64.98
2023-05-14T02:02:56.672Z,64.79
2023-05-14T02:03:56.657Z,64.79
2023-05-14T02:04:56.610Z,64.59
2023-05-14T02:05:56.614Z,64.59
2023-05-14T02:06:56.607Z,64.88
2023-05-14T02:07:56.601Z,64.31
2023-05-14T02:08:56.605Z,64.59
2023-05-14T02:09:56.590Z,64.31
2023-05-14T02:10:56.598Z,64.59
2023-05-14T02:11:56.594Z,64.31
2023-05-14T02:12:56.586Z,64.02
2023-05-14T02:13:56.592Z,64.40
2023-05-14T02:14:56.613Z,64.31
2023-05-14T02:15:56.609Z,64.40
2023-05-14T02:16:56.589Z,64.31
2023-05-14T02:17:56.628Z,64.22
2023-05-14T02:18:56.666Z,64.12
2023-05-14T02:19:56.583Z,64.22
2023-05-14T02:20:56.581Z,63.83
2023-05-14T02:21:56.593Z,63.73
2023-05-14T02:22:56.587Z,63.35
2023-05-14T02:23:56.570Z,62.59
2023-05-14T02:24:56.584Z,63.06
2023-05-14T02:25:57.498Z,62.87
2023-05-14T02:26:56.575Z,62.97
2023-05-14T02:27:56.570Z,62.97
2023-05-14T02:28:56.571Z,62.97
2023-05-14T02:29:56.564Z,62.97
2023-05-14T02:30:56.563Z,63.06
2023-05-14T02:31:56.893Z,62.49
2023-05-14T02:32:56.616Z,62.68
2023-05-14T02:33:56.554Z,62.20
2023-05-14T02:34:56.573Z,62.40
2023-05-14T02:35:56.570Z,62.20
2023-05-14T02:36:56.562Z,61.91
2023-05-14T02:37:56.564Z,61.63
2023-05-14T02:38:56.565Z,61.34
2023-05-14T02:39:56.558Z,60.58
2023-05-14T02:40:56.550Z,60.77
2023-05-14T02:41:56.562Z,60.48
2023-05-14T02:42:56.554Z,60.86
2023-05-14T02:43:56.547Z,61.15
2023-05-14T02:44:56.551Z,60.96
2023-05-14T02:45:56.534Z,61.05
2023-05-14T02:46:56.568Z,60.67
2023-05-14T02:47:56.592Z,60.19
2023-05-14T02:48:56.541Z,60.00
2023-05-14T02:49:56.529Z,60.38
2023-05-14T02:50:56.542Z,60.19
2023-05-14T02:51:56.537Z,59.81
2023-05-14T02:52:56.541Z,60.38
2023-05-14T02:53:56.520Z,60.48
2023-05-14T02:54:56.608Z,60.38
2023-05-14T02:55:56.530Z,60.48
2023-05-14T02:56:56.572Z,60.48
2023-05-14T02:57:56.516Z,60.48
2023-05-14T02:58:56.517Z,60.38
2023-05-14T02:59:56.528Z,60.29
2023-05-14T03:00:56.573Z,60.77
2023-05-14T03:01:56.566Z,61.05
2023-05-14T03:02:56.559Z,61.25
2023-05-14T03:03:56.504Z,60.86
2023-05-14T03:04:56.516Z,61.15
2023-05-14T03:05:56.514Z,61.05
2023-05-14T03:06:56.512Z,61.05
2023-05-14T03:07:56.496Z,60.86
2023-05-14T03:08:56.509Z,60.96
2023-05-14T03:09:56.503Z,61.15
2023-05-14T03:10:56.515Z,61.15
2023-05-14T03:11:56.507Z,61.15
2023-05-14T03:12:56.529Z,61.15
2023-05-14T03:13:56.491Z,61.15
2023-05-14T03:14:56.517Z,61.05
2023-05-14T03:15:56.496Z,61.15
2023-05-14T03:17:03.878Z,61.15
2023-05-14T03:19:00.631Z,61.15
2023-05-14T03:20:00.568Z,61.63
2023-05-14T03:22:04.555Z,61.72
2023-05-14T03:23:04.540Z,61.82
2023-05-14T03:25:08.569Z,61.72
2023-05-14T03:26:08.512Z,61.63
2023-05-14T03:28:01.436Z,62.01
2023-05-14T03:29:01.426Z,62.30
2023-05-14T03:31:05.551Z,61.82
2023-05-14T03:32:05.436Z,61.72
2023-05-14T03:33:58.579Z,62.30
2023-05-14T03:34:58.576Z,62.30
2023-05-14T03:37:02.592Z,62.87
2023-05-14T03:38:02.571Z,62.40
2023-05-14T03:39:02.553Z,62.59
2023-05-14T03:40:02.582Z,62.59
2023-05-14T03:41:02.548Z,62.11
2023-05-14T03:42:02.564Z,62.30
2023-05-14T03:43:02.555Z,62.30
2023-05-14T03:44:02.550Z,62.20
2023-05-14T03:45:02.551Z,62.30
2023-05-14T03:46:02.540Z,62.30
2023-05-14T03:47:02.551Z,62.11
2023-05-14T03:48:02.725Z,62.49
2023-05-14T03:49:02.669Z,62.20
2023-05-14T03:50:02.548Z,62.30
2023-05-14T03:51:02.533Z,61.91
2023-05-14T03:52:02.542Z,62.11
2023-05-14T03:53:02.544Z,62.01
2023-05-14T03:54:02.553Z,62.01
2023-05-14T03:55:02.567Z,61.54
2023-05-14T03:56:02.552Z,60.96
2023-05-14T03:57:02.552Z,60.96
2023-05-14T03:58:02.537Z,61.25
2023-05-14T03:59:02.521Z,60.96
2023-05-14T04:00:02.541Z,61.05
2023-05-14T04:01:02.539Z,61.44
2023-05-14T04:02:02.545Z,61.15
2023-05-14T04:03:02.664Z,61.25
2023-05-14T04:04:02.597Z,60.96
2023-05-14T04:05:02.592Z,60.77
2023-05-14T04:06:02.518Z,60.77
2023-05-14T04:07:02.533Z,61.15
2023-05-14T04:08:02.538Z,61.15
2023-05-14T04:09:02.537Z,61.15
2023-05-14T04:10:04.303Z,60.96
2023-05-14T04:11:02.503Z,60.67
2023-05-14T04:12:02.526Z,60.29
2023-05-14T04:13:02.512Z,60.38
2023-05-14T04:14:02.508Z,60.48
2023-05-14T04:15:02.497Z,60.86
2023-05-14T04:16:02.578Z,60.38
2023-05-14T04:17:02.508Z,60.77
2023-05-14T04:18:02.557Z,61.25
2023-05-14T04:19:02.591Z,60.96
2023-05-14T04:20:02.491Z,60.77
2023-05-14T04:21:02.487Z,61.05
2023-05-14T04:22:02.502Z,60.96
2023-05-14T04:23:02.494Z,61.15
2023-05-14T04:24:02.514Z,61.05
2023-05-14T04:25:02.492Z,61.34
2023-05-14T04:26:02.487Z,61.34
2023-05-14T04:27:02.518Z,60.96
2023-05-14T04:28:02.493Z,61.05
2023-05-14T04:29:02.487Z,61.63
2023-05-14T04:30:02.495Z,61.72
2023-05-14T04:31:02.476Z,61.63
2023-05-14T04:32:02.517Z,61.72
2023-05-14T04:33:02.497Z,61.72
2023-05-14T04:34:02.480Z,61.63
2023-05-14T04:35:02.473Z,61.63
2023-05-14T04:36:02.472Z,61.63
2023-05-14T04:37:02.475Z,61.34
2023-05-14T04:38:02.486Z,61.63
2023-05-14T04:39:02.491Z,61.72
2023-05-14T04:40:02.539Z,62.20
2023-05-14T04:41:02.478Z,62.20
2023-05-14T04:42:02.449Z,62.01
2023-05-14T04:43:02.467Z,62.49
2023-05-14T04:44:02.460Z,61.91
2023-05-14T04:45:02.475Z,61.63
2023-05-14T04:46:02.515Z,62.20
2023-05-14T04:47:02.462Z,62.01
2023-05-14T04:48:02.511Z,62.49
2023-05-14T04:49:02.461Z,62.68
2023-05-14T04:50:02.488Z,62.87
2023-05-14T04:51:03.254Z,62.68
2023-05-14T04:52:02.485Z,63.26
2023-05-14T04:53:02.462Z,63.16
2023-05-14T04:54:02.487Z,62.77
2023-05-14T04:55:02.445Z,62.49
2023-05-14T04:56:02.426Z,62.59
2023-05-14T04:57:02.423Z,62.40
2023-05-14T04:58:02.422Z,62.40
2023-05-14T04:59:02.438Z,62.77
2023-05-14T05:00:02.444Z,62.68
2023-05-14T05:01:02.451Z,62.20
2023-05-14T05:02:02.439Z,62.59
2023-05-14T05:03:02.517Z,62.11
2023-05-14T05:04:02.494Z,62.49
2023-05-14T05:05:02.425Z,62.40
2023-05-14T05:06:02.430Z,63.16
2023-05-14T05:07:02.413Z,62.77
2023-05-14T05:08:02.417Z,62.87
2023-05-14T05:09:02.481Z,62.59
2023-05-14T05:10:02.441Z,62.68
2023-05-14T05:11:02.408Z,62.49
2023-05-14T05:12:02.416Z,62.30
2023-05-14T05:13:02.445Z,62.40
2023-05-14T05:14:02.434Z,62.77
2023-05-14T05:15:02.420Z,62.20
2023-05-14T05:16:02.430Z,60.96
2023-05-14T05:17:02.405Z,61.72
2023-05-14T05:18:02.493Z,61.05
2023-05-14T05:19:02.434Z,61.15
2023-05-14T05:20:02.396Z,61.05
2023-05-14T05:21:02.389Z,60.48
2023-05-14T05:22:02.425Z,60.38
2023-05-14T05:23:02.404Z,60.10
2023-05-14T05:24:02.407Z,60.29
2023-05-14T05:25:02.420Z,60.38
2023-05-14T05:26:02.415Z,60.29
2023-05-14T05:27:02.389Z,60.19
2023-05-14T05:28:02.432Z,60.77
2023-05-14T05:29:02.406Z,60.67
2023-05-14T05:30:02.397Z,60.32
2023-05-14T05:31:02.429Z,60.32
2023-05-14T05:32:02.402Z,60.32
2023-05-14T05:33:02.407Z,60.13
2023-05-14T05:34:02.393Z,59.84
2023-05-14T05:35:02.389Z,59.08
2023-05-14T05:36:02.377Z,58.79
2023-05-14T05:37:02.403Z,58.88
2023-05-14T05:38:02.470Z,58.69
2023-05-14T05:39:02.425Z,59.65
2023-05-14T05:40:02.420Z,59.20
2023-05-14T05:41:02.388Z,58.44
2023-05-14T05:42:02.393Z,58.53
2023-05-14T05:43:02.388Z,58.15
2023-05-14T05:44:02.391Z,58.24
2023-05-14T05:45:02.439Z,58.34
2023-05-14T05:46:02.434Z,58.53
2023-05-14T05:47:02.531Z,58.34
2023-05-14T05:48:02.394Z,57.76
2023-05-14T05:49:02.389Z,57.57
2023-05-14T05:50:02.542Z,57.76
2023-05-14T05:51:02.385Z,57.86
2023-05-14T05:52:02.388Z,57.95
2023-05-14T05:53:02.388Z,57.38
2023-05-14T05:54:02.404Z,57.67
2023-05-14T05:55:02.412Z,57.57
2023-05-14T05:56:02.398Z,57.19
2023-05-14T05:57:02.408Z,56.61
2023-05-14T05:58:02.425Z,56.42
2023-05-14T05:59:02.424Z,57.09
2023-05-14T06:00:02.420Z,57.19
2023-05-14T06:01:02.450Z,57.67
2023-05-14T06:02:02.462Z,57.38
2023-05-14T06:03:02.457Z,57.38
2023-05-14T06:04:02.414Z,57.19
2023-05-14T06:05:02.439Z,57.19
2023-05-14T06:06:02.408Z,57.28
2023-05-14T06:07:02.403Z,56.99
2023-05-14T06:08:02.435Z,57.28
2023-05-14T06:09:02.409Z,57.28
2023-05-14T06:10:02.452Z,57.38
2023-05-14T06:11:02.408Z,57.41
2023-05-14T06:12:02.427Z,57.21
2023-05-14T06:13:02.412Z,56.54
2023-05-14T06:14:02.421Z,56.16
2023-05-14T06:15:02.439Z,56.45
2023-05-14T06:16:02.441Z,56.83
2023-05-14T06:17:02.581Z,56.35
2023-05-14T06:18:02.491Z,56.64
2023-05-14T06:19:02.465Z,56.64
2023-05-14T06:20:02.468Z,56.35
2023-05-14T06:21:02.475Z,56.64
2023-05-14T06:22:02.441Z,56.45
2023-05-14T06:23:02.452Z,57.21
2023-05-14T06:24:02.446Z,57.12
2023-05-14T06:25:02.444Z,56.83
2023-05-14T06:26:02.442Z,57.03
2023-05-14T06:27:02.443Z,57.31
2023-05-14T06:28:02.438Z,56.83
2023-05-14T06:29:02.465Z,56.45
2023-05-14T06:30:03.022Z,56.45
2023-05-14T06:31:02.434Z,56.83
2023-05-14T06:32:02.501Z,57.41
2023-05-14T06:33:02.468Z,57.12
2023-05-14T06:34:02.451Z,57.79
2023-05-14T06:35:02.464Z,57.31
2023-05-14T06:36:02.456Z,57.12
2023-05-14T06:37:02.460Z,56.16
2023-05-14T06:38:02.450Z,57.12
2023-05-14T06:39:02.508Z,57.31
2023-05-14T06:40:02.459Z,56.93
2023-05-14T06:41:02.461Z,56.93
2023-05-14T06:42:02.479Z,57.12
2023-05-14T06:43:02.449Z,56.93
2023-05-14T06:44:02.449Z,57.03
2023-05-14T06:45:02.451Z,57.12
2023-05-14T06:46:02.534Z,57.12
2023-05-14T06:47:02.439Z,56.93
2023-05-14T06:48:02.532Z,57.34
2023-05-14T06:49:02.492Z,57.24
2023-05-14T06:50:02.463Z,56.96
2023-05-14T06:51:02.478Z,56.48
2023-05-14T06:52:02.466Z,56.86
2023-05-14T06:53:02.457Z,56.67
2023-05-14T06:54:02.519Z,56.38
2023-05-14T06:55:02.441Z,56.57
2023-05-14T06:56:02.447Z,56.38
2023-05-14T06:57:02.494Z,56.19
2023-05-14T06:58:02.445Z,56.67
2023-05-14T06:59:02.452Z,56.86
2023-05-14T07:00:03.701Z,57.24
2023-05-14T07:01:02.504Z,57.06
2023-05-14T07:02:02.462Z,57.06
2023-05-14T07:03:02.564Z,56.86
2023-05-14T07:04:02.499Z,56.96
2023-05-14T07:05:02.473Z,57.34
2023-05-14T07:06:02.468Z,57.24
2023-05-14T07:07:02.456Z,57.24
2023-05-14T07:08:02.501Z,57.24
2023-05-14T07:09:02.453Z,56.96
2023-05-14T07:10:02.467Z,56.48
2023-05-14T07:11:02.501Z,55.62
2023-05-14T07:12:02.460Z,55.33
2023-05-14T07:13:02.464Z,55.33
2023-05-14T07:14:02.464Z,55.71
2023-05-14T07:15:02.478Z,56.12
2023-05-14T07:16:02.489Z,56.98
2023-05-14T07:17:02.530Z,57.28
2023-05-14T07:18:02.491Z,57.56
2023-05-14T07:19:02.508Z,56.51
2023-05-14T07:20:02.485Z,56.22
2023-05-14T07:21:02.481Z,57.37
2023-05-14T07:22:02.497Z,57.28
2023-05-14T07:23:02.480Z,57.30
2023-05-14T07:24:02.487Z,57.40
2023-05-14T07:25:02.474Z,57.68
2023-05-14T07:26:02.470Z,57.30
2023-05-14T07:27:02.507Z,56.63
2023-05-14T07:28:02.457Z,57.40
2023-05-14T07:29:02.515Z,57.11
2023-05-14T07:30:02.464Z,57.40
2023-05-14T07:31:02.542Z,57.21
2023-05-14T07:32:02.474Z,57.21
2023-05-14T07:33:02.494Z,55.99
2023-05-14T07:34:02.496Z,54.83
2023-05-14T07:35:02.481Z,55.89
2023-05-14T07:36:02.476Z,55.99
2023-05-14T07:37:02.485Z,55.51
2023-05-14T07:38:02.498Z,55.02
2023-05-14T07:39:02.503Z,53.11
2023-05-14T07:40:02.484Z,53.11
2023-05-14T07:41:02.482Z,53.20
2023-05-14T07:42:02.509Z,53.39
2023-05-14T07:43:02.487Z,53.13
2023-05-14T07:44:02.512Z,52.43
2023-05-14T07:45:02.498Z,52.43
2023-05-14T07:46:02.516Z,52.65
2023-05-14T07:47:02.578Z,52.14
2023-05-14T07:48:02.570Z,51.59
2023-05-14T07:49:02.504Z,51.50
2023-05-14T07:50:02.540Z,51.50
2023-05-14T07:51:02.512Z,50.73
2023-05-14T07:52:02.497Z,51.31
2023-05-14T07:53:02.541Z,52.75
2023-05-14T07:54:02.495Z,52.65
2023-05-14T07:55:02.506Z,52.68
2023-05-14T07:56:02.535Z,52.87
2023-05-14T07:57:02.518Z,51.43
2023-05-14T07:58:02.609Z,50.37
2023-05-14T07:59:02.518Z,50.66
2023-05-14T08:00:02.531Z,51.04
2023-05-14T08:01:02.526Z,49.89
2023-05-14T08:02:02.547Z,50.18
2023-05-14T08:03:02.689Z,49.43
2023-05-14T08:04:02.662Z,50.46
2023-05-14T08:05:02.542Z,50.49
2023-05-14T08:06:02.527Z,49.91
2023-05-14T08:07:02.599Z,48.47
2023-05-14T08:08:02.562Z,48.18
2023-05-14T08:09:02.550Z,47.70
2023-05-14T08:10:02.539Z,46.84
2023-05-14T08:11:02.604Z,47.61
2023-05-14T08:12:02.559Z,47.41
2023-05-14T08:13:02.576Z,47.80
2023-05-14T08:14:02.570Z,49.24
2023-05-14T08:15:02.569Z,47.15
2023-05-14T08:16:02.572Z,47.05
2023-05-14T08:17:02.627Z,46.38
2023-05-14T08:18:02.683Z,45.51
2023-05-14T08:19:02.633Z,45.99
2023-05-14T08:20:02.599Z,46.57
2023-05-14T08:21:03.490Z,46.47
2023-05-14T08:22:02.609Z,47.05
2023-05-14T08:23:02.623Z,46.09
2023-05-14T08:24:02.623Z,46.09
2023-05-14T08:25:02.620Z,46.67
2023-05-14T08:26:02.624Z,45.80
2023-05-14T08:27:02.628Z,44.35
2023-05-14T08:28:02.644Z,44.55
2023-05-14T08:29:02.700Z,45.13
2023-05-14T08:30:02.682Z,44.86
2023-05-14T08:31:02.726Z,44.76
2023-05-14T08:32:11.624Z,44.57
2023-05-14T08:33:02.735Z,45.25
2023-05-14T08:34:02.673Z,45.34
2023-05-14T08:35:02.667Z,45.15
2023-05-14T08:36:02.683Z,45.34
2023-05-14T08:37:02.701Z,44.21
2023-05-14T08:38:02.718Z,43.63
2023-05-14T08:39:02.721Z,43.15
2023-05-14T08:40:02.742Z,41.97
2023-05-14T08:41:02.724Z,42.36
2023-05-14T08:42:02.745Z,42.36
2023-05-14T08:43:02.714Z,42.46
2023-05-14T08:44:02.704Z,43.23
2023-05-14T08:45:02.796Z,44.09
2023-05-14T08:46:02.734Z,43.99
2023-05-14T08:47:02.764Z,43.23
2023-05-14T08:48:02.840Z,43.90
2023-05-14T08:49:02.750Z,44.48
2023-05-14T08:50:02.745Z,43.61
2023-05-14T08:51:02.739Z,44.09
2023-05-14T08:52:02.745Z,44.02
2023-05-14T08:53:02.764Z,42.86
2023-05-14T08:54:02.760Z,42.74
2023-05-14T08:55:02.800Z,42.38
2023-05-14T08:56:02.822Z,42.36
2023-05-14T08:57:02.751Z,41.80
2023-05-14T08:58:02.822Z,43.23
2023-05-14T08:59:02.769Z,43.13
2023-05-14T09:00:02.787Z,42.26
2023-05-14T09:01:02.789Z,42.16
2023-05-14T09:02:02.841Z,42.84
2023-05-14T09:03:02.803Z,41.88
2023-05-14T09:04:02.846Z,41.49
2023-05-14T09:05:02.801Z,42.36
2023-05-14T09:06:02.801Z,42.36
2023-05-14T09:07:02.859Z,42.74
2023-05-14T09:08:02.805Z,42.36
2023-05-14T09:09:02.854Z,41.88
2023-05-14T09:10:02.855Z,42.46
2023-05-14T09:11:02.858Z,42.65
2023-05-14T09:12:02.873Z,42.46
2023-05-14T09:13:02.838Z,43.73
2023-05-14T09:14:02.855Z,44.02
2023-05-14T09:15:02.887Z,44.11
2023-05-14T09:16:02.871Z,42.47
2023-05-14T09:17:02.857Z,41.99
2023-05-14T09:18:02.978Z,42.38
2023-05-14T09:19:02.922Z,42.76
2023-05-14T09:20:02.897Z,43.55
2023-05-14T09:21:02.890Z,44.13
2023-05-14T09:22:02.854Z,42.59
2023-05-14T09:23:02.893Z,43.27
2023-05-14T09:24:02.854Z,41.63
2023-05-14T09:25:02.861Z,43.37
2023-05-14T09:26:02.865Z,42.79
2023-05-14T09:27:02.873Z,42.79
2023-05-14T09:28:03.612Z,42.21
2023-05-14T09:29:02.897Z,41.82
2023-05-14T09:30:02.892Z,41.05
2023-05-14T09:31:02.887Z,40.76
2023-05-14T09:32:02.948Z,40.76
2023-05-14T09:33:02.960Z,40.28
2023-05-14T09:34:02.898Z,40.57
2023-05-14T09:35:02.904Z,40.74
2023-05-14T09:36:02.902Z,39.99
2023-05-14T09:37:02.931Z,40.19
2023-05-14T09:38:02.907Z,40.84
2023-05-14T09:39:02.920Z,40.76
2023-05-14T09:40:02.933Z,40.94
2023-05-14T09:41:02.918Z,40.07
2023-05-14T09:42:02.922Z,40.07
2023-05-14T09:43:02.930Z,41.22
2023-05-14T09:44:04.753Z,40.07
2023-05-14T09:45:02.951Z,39.99
2023-05-14T09:46:02.935Z,39.61
2023-05-14T09:47:02.947Z,40.76
2023-05-14T09:48:03.238Z,39.78
2023-05-14T09:49:02.973Z,40.26
2023-05-14T09:50:02.953Z,39.68
2023-05-14T09:51:04.616Z,39.70
2023-05-14T09:52:02.940Z,39.41
2023-05-14T09:53:02.976Z,39.41
2023-05-14T09:54:02.964Z,39.99
2023-05-14T09:55:02.956Z,40.09
2023-05-14T09:56:02.958Z,39.70
2023-05-14T09:57:02.972Z,39.12
2023-05-14T09:58:02.997Z,39.51
2023-05-14T09:59:02.968Z,39.61
2023-05-14T10:00:02.991Z,39.22
2023-05-14T10:01:03.049Z,38.83
2023-05-14T10:02:02.985Z,38.83
2023-05-14T10:03:03.023Z,39.20
2023-05-14T10:04:03.047Z,39.29
2023-05-14T10:05:03.003Z,40.26
2023-05-14T10:06:03.002Z,40.45
2023-05-14T10:07:02.996Z,40.84
2023-05-14T10:08:03.021Z,41.03
2023-05-14T10:09:03.004Z,40.45
2023-05-14T10:10:03.022Z,39.97
2023-05-14T10:11:03.036Z,40.07
2023-05-14T10:12:03.009Z,40.24
2023-05-14T10:13:03.040Z,40.14
2023-05-14T10:14:03.029Z,40.72
2023-05-14T10:15:03.033Z,40.91
2023-05-14T10:16:03.074Z,41.01
2023-05-14T10:17:03.083Z,40.53
2023-05-14T10:18:03.097Z,40.34
2023-05-14T10:19:03.112Z,40.55
2023-05-14T10:20:03.025Z,40.24
2023-05-14T10:21:03.030Z,39.86
2023-05-14T10:22:03.039Z,40.34
2023-05-14T10:23:03.044Z,40.43
2023-05-14T10:24:03.035Z,39.86
2023-05-14T10:25:03.039Z,40.34
2023-05-14T10:26:03.040Z,41.01
2023-05-14T10:27:03.125Z,40.89
2023-05-14T10:28:03.061Z,40.99
2023-05-14T10:29:03.062Z,41.76
2023-05-14T10:30:03.051Z,41.11
2023-05-14T10:31:03.109Z,40.80
2023-05-14T10:32:03.099Z,40.70
2023-05-14T10:33:03.172Z,40.99
2023-05-14T10:34:03.073Z,40.99
2023-05-14T10:35:03.165Z,40.70
2023-05-14T10:36:03.150Z,40.70
2023-05-14T10:37:03.076Z,41.18
2023-05-14T10:38:03.073Z,40.99
2023-05-14T10:39:03.070Z,40.80
2023-05-14T10:40:03.087Z,41.28
2023-05-14T10:41:03.143Z,41.38
2023-05-14T10:42:03.129Z,40.80
2023-05-14T10:43:03.080Z,41.86
2023-05-14T10:44:03.076Z,41.76
2023-05-14T10:45:03.177Z,42.33
2023-05-14T10:46:03.183Z,42.63
2023-05-14T10:47:03.231Z,42.43
2023-05-14T10:48:03.173Z,41.86
2023-05-14T10:49:03.160Z,41.76
2023-05-14T10:50:03.178Z,41.76
2023-05-14T10:51:03.186Z,42.24
2023-05-14T10:52:03.116Z,41.28
2023-05-14T10:53:03.105Z,41.47
2023-05-14T10:54:03.094Z,41.28
2023-05-14T10:55:03.687Z,41.08
2023-05-14T10:56:03.176Z,41.28
2023-05-14T10:57:03.118Z,40.80
2023-05-14T10:58:03.171Z,40.41
2023-05-14T10:59:03.148Z,40.41
2023-05-14T11:00:03.162Z,40.80
2023-05-14T11:01:03.175Z,40.03
2023-05-14T11:02:03.212Z,40.22
2023-05-14T11:03:03.193Z,39.83
2023-05-14T11:04:03.232Z,40.22
2023-05-14T11:05:03.182Z,40.12
2023-05-14T11:06:03.187Z,40.11
2023-05-14T11:07:03.246Z,40.12
2023-05-14T11:08:03.157Z,40.20
2023-05-14T11:09:03.125Z,39.81
2023-05-14T11:10:03.169Z,39.72
2023-05-14T11:11:03.219Z,39.81
2023-05-14T11:12:03.260Z,39.72
2023-05-14T11:13:03.244Z,40.11
2023-05-14T11:14:03.223Z,40.58
2023-05-14T11:15:03.128Z,40.49
2023-05-14T11:16:11.981Z,40.01
2023-05-14T11:17:03.342Z,39.91
2023-05-14T11:18:03.220Z,40.30
2023-05-14T11:19:03.414Z,40.20
2023-05-14T11:20:03.223Z,40.78
2023-05-14T11:21:03.167Z,40.58
2023-05-14T11:22:03.136Z,40.88
2023-05-14T11:23:03.228Z,41.55
2023-05-14T11:24:03.262Z,41.74
2023-05-14T11:25:03.245Z,41.83
2023-05-14T11:26:03.408Z,41.74
2023-05-14T11:27:03.180Z,41.74
2023-05-14T11:28:03.243Z,41.55
2023-05-14T11:29:03.212Z,42.41
2023-05-14T11:30:03.290Z,42.60
2023-05-14T11:31:03.281Z,42.80
2023-05-14T11:32:03.399Z,42.89
2023-05-14T11:33:03.192Z,43.18
2023-05-14T11:34:03.215Z,43.28
2023-05-14T11:35:03.285Z,44.14
2023-05-14T11:36:03.161Z,44.43
2023-05-14T11:37:03.284Z,44.34
2023-05-14T11:38:03.161Z,43.37
2023-05-14T11:39:03.293Z,43.47
2023-05-14T11:40:03.217Z,43.66
2023-05-14T11:41:03.293Z,43.85
2023-05-14T11:42:03.243Z,43.85
2023-05-14T11:43:03.324Z,44.05
2023-05-14T11:44:03.277Z,44.34
2023-05-14T11:45:03.191Z,44.05
2023-05-14T11:46:03.287Z,44.24
2023-05-14T11:47:03.295Z,44.72
2023-05-14T11:48:03.357Z,44.91
2023-05-14T11:49:03.309Z,45.20
2023-05-14T11:50:03.189Z,44.91
2023-05-14T11:51:03.174Z,44.72
2023-05-14T11:52:03.211Z,44.62
2023-05-14T11:53:03.269Z,44.34
2023-05-14T11:54:03.195Z,44.05
2023-05-14T11:55:03.193Z,44.05
2023-05-14T11:56:03.390Z,43.95
2023-05-14T11:57:03.198Z,43.47
2023-05-14T11:58:03.203Z,43.57
2023-05-14T11:59:03.193Z,43.85
2023-05-14T12:00:03.219Z,44.05
2023-05-14T12:01:03.199Z,43.76
2023-05-14T12:02:04.212Z,43.95
2023-05-14T12:03:03.273Z,44.05
2023-05-14T12:04:03.296Z,44.05
2023-05-14T12:05:03.296Z,44.05
2023-05-14T12:06:03.231Z,44.24
2023-05-14T12:07:03.342Z,43.76
2023-05-14T12:08:03.310Z,44.14
2023-05-14T12:09:03.236Z,44.14
2023-05-14T12:10:03.225Z,44.72
2023-05-14T12:11:03.201Z,44.91
2023-05-14T12:12:03.214Z,44.72
2023-05-14T12:13:03.234Z,43.85
2023-05-14T12:14:03.233Z,44.82
2023-05-14T12:15:03.213Z,44.62
2023-05-14T12:16:03.296Z,44.82
2023-05-14T12:17:03.202Z,45.20
2023-05-14T12:18:03.843Z,44.72
2023-05-14T12:19:03.237Z,44.43
2023-05-14T12:20:03.329Z,44.55
2023-05-14T12:21:03.265Z,44.62
2023-05-14T12:22:03.373Z,44.62
2023-05-14T12:23:03.298Z,44.55
2023-05-14T12:24:03.336Z,44.17
2023-05-14T12:25:03.238Z,43.59
2023-05-14T12:26:03.241Z,43.40
2023-05-14T12:27:03.219Z,42.91
2023-05-14T12:28:03.229Z,42.14
2023-05-14T12:29:03.226Z,42.33
2023-05-14T12:30:19.072Z,41.86
2023-05-14T12:31:03.312Z,42.24
2023-05-14T12:32:03.244Z,42.14
2023-05-14T12:33:03.279Z,42.63
2023-05-14T12:34:03.360Z,43.11
2023-05-14T12:35:03.241Z,43.20
2023-05-14T12:36:17.502Z,43.49
2023-05-14T12:37:03.357Z,43.30
2023-05-14T12:38:03.248Z,43.20
2023-05-14T12:39:03.252Z,43.68
2023-05-14T12:40:03.281Z,43.49
2023-05-14T12:41:03.253Z,43.78
2023-05-14T12:42:03.355Z,43.01
2023-05-14T12:43:03.344Z,43.49
2023-05-14T12:44:03.472Z,43.68
2023-05-14T12:45:03.268Z,43.88
2023-05-14T12:46:03.285Z,42.91
2023-05-14T12:47:03.314Z,42.43
2023-05-14T12:48:03.317Z,43.30
2023-05-14T12:49:03.265Z,43.59
2023-05-14T12:50:03.272Z,43.59
2023-05-14T12:51:03.276Z,43.59
2023-05-14T12:52:19.504Z,43.49
2023-05-14T12:53:03.301Z,43.30
2023-05-14T12:54:03.295Z,43.30
2023-05-14T12:55:03.309Z,42.91
2023-05-14T12:56:03.278Z,42.63
2023-05-14T12:57:03.285Z,42.33
2023-05-14T12:58:03.291Z,42.82
2023-05-14T12:59:03.297Z,43.11
2023-05-14T13:00:03.315Z,43.20